createdAt,value
2022-12-22T00:00:20.768Z,4.40
2022-12-22T00:11:35.615Z,4.70
2022-12-22T00:17:16.891Z,4.90
2022-12-22T00:22:44.493Z,3.90
2022-12-22T00:28:06.741Z,2.80
2022-12-22T00:46:26.059Z,3.17
2022-12-22T01:04:19.423Z,2.20
2022-12-22T01:16:24.626Z,2.37
2022-12-22T01:27:48.107Z,2.20
2022-12-22T01:33:09.298Z,3.00
2022-12-22T01:38:50.187Z,2.60
2022-12-22T02:17:08.145Z,1.90
2022-12-22T02:49:49.846Z,2.40
2022-12-22T03:01:55.207Z,2.37
2022-12-22T03:25:40.697Z,2.03
2022-12-22T04:40:35.340Z,1.20
2022-12-22T04:52:56.644Z,1.30
2022-12-22T05:05:47.568Z,1.00
2022-12-22T06:09:27.601Z,1.20
2022-12-22T06:14:34.097Z,1.73
2022-12-22T06:25:19.041Z,2.07
2022-12-22T06:30:34.109Z,1.50
2022-12-22T06:35:50.844Z,1.20
2022-12-22T06:41:06.709Z,1.30
2022-12-22T06:46:09.098Z,0.83
2022-12-22T06:56:57.769Z,1.00
2022-12-22T07:01:59.942Z,1.20
2022-12-22T07:07:05.171Z,1.33
2022-12-22T07:17:26.758Z,1.10
2022-12-22T07:22:32.830Z,1.17
2022-12-22T07:33:36.418Z,0.90
2022-12-22T07:38:49.329Z,0.97
2022-12-22T07:49:47.931Z,2.13
2022-12-22T07:54:52.634Z,0.97
2022-12-22T07:59:57.492Z,1.10
2022-12-22T08:11:17.035Z,0.90
2022-12-22T08:16:20.872Z,1.00
2022-12-22T08:21:26.729Z,1.20
2022-12-22T08:26:38.810Z,1.00
2022-12-22T08:31:41.788Z,0.87
2022-12-22T08:36:50.896Z,1.07
2022-12-22T08:41:53.545Z,1.00
2022-12-22T08:46:58.423Z,0.93
2022-12-22T08:52:00.705Z,0.80
2022-12-22T08:57:02.590Z,1.00
2022-12-22T09:02:05.674Z,1.17
2022-12-22T09:07:09.775Z,0.80
2022-12-22T09:12:13.220Z,0.80
2022-12-22T09:17:15.335Z,0.80
2022-12-22T09:22:21.771Z,1.10
2022-12-22T09:27:27.136Z,0.93
2022-12-22T09:32:29.980Z,1.43
2022-12-22T09:37:31.848Z,0.90
2022-12-22T09:42:35.689Z,1.10
2022-12-22T09:47:40.103Z,1.30
2022-12-22T09:52:54.128Z,1.00
2022-12-22T09:57:57.151Z,1.23
2022-12-22T10:03:31.455Z,1.80
2022-12-22T10:08:36.419Z,1.30
2022-12-22T10:13:38.381Z,1.33
2022-12-22T10:18:55.926Z,1.10
2022-12-22T10:23:59.086Z,1.10
2022-12-22T10:29:10.353Z,1.70
2022-12-22T10:34:17.811Z,0.93
2022-12-22T10:39:26.103Z,0.90
2022-12-22T10:44:35.705Z,1.00
2022-12-22T10:54:45.263Z,1.00
2022-12-22T11:00:23.331Z,1.57
2022-12-22T11:05:25.628Z,1.20
2022-12-22T11:10:40.031Z,1.10
2022-12-22T11:16:03.804Z,1.03
2022-12-22T11:21:26.600Z,1.20
2022-12-22T11:26:47.387Z,1.20
2022-12-22T11:32:19.470Z,0.83
2022-12-22T11:37:46.860Z,1.10
2022-12-22T11:42:51.781Z,1.30
2022-12-22T11:47:59.624Z,0.97
2022-12-22T11:53:26.165Z,1.00
2022-12-22T11:58:46.585Z,1.57
2022-12-22T12:03:51.417Z,1.13
2022-12-22T12:09:14.014Z,0.87
2022-12-22T12:14:38.116Z,1.17
2022-12-22T12:19:48.593Z,0.70
2022-12-22T12:25:00.316Z,1.27
2022-12-22T12:36:00.053Z,0.90
2022-12-22T12:41:29.573Z,1.03
2022-12-22T12:46:44.469Z,1.43
2022-12-22T12:51:49.507Z,1.00
2022-12-22T12:57:00.461Z,1.20
2022-12-22T13:02:02.454Z,1.20
2022-12-22T13:07:04.751Z,1.30
2022-12-22T13:12:48.925Z,1.10
2022-12-22T13:17:51.096Z,1.00
2022-12-22T13:22:55.905Z,0.80
2022-12-22T13:27:58.532Z,0.93
2022-12-22T13:33:02.295Z,1.20
2022-12-22T13:38:04.847Z,0.80
2022-12-22T13:43:17.945Z,1.20
2022-12-22T13:48:44.782Z,1.00
2022-12-22T13:54:10.388Z,1.13
2022-12-22T13:59:46.456Z,0.80
2022-12-22T14:05:11.625Z,0.80
2022-12-22T14:10:13.481Z,1.30
2022-12-22T14:15:19.262Z,0.87
2022-12-22T14:20:36.343Z,1.10
2022-12-22T14:25:41.794Z,0.93
2022-12-22T14:30:47.501Z,1.13
2022-12-22T14:35:50.592Z,1.10
2022-12-22T14:40:57.377Z,1.00
2022-12-22T14:46:08.862Z,1.10
2022-12-22T14:51:11.032Z,1.17
2022-12-22T14:56:14.915Z,1.07
2022-12-22T15:01:20.002Z,0.90
2022-12-22T15:06:21.924Z,1.13
2022-12-22T15:11:24.434Z,1.47
2022-12-22T15:16:26.383Z,1.10
2022-12-22T15:21:28.283Z,0.97
2022-12-22T15:26:35.960Z,0.97
2022-12-22T15:31:42.223Z,0.90
2022-12-22T15:36:44.143Z,1.03
2022-12-22T15:41:46.797Z,1.27
2022-12-22T15:46:55.426Z,0.90
2022-12-22T15:52:03.054Z,1.30
2022-12-22T15:57:04.993Z,1.00
2022-12-22T16:02:12.392Z,1.00
2022-12-22T16:07:14.524Z,1.27
2022-12-22T16:12:19.052Z,1.30
2022-12-22T16:17:23.655Z,1.33
2022-12-22T16:22:32.229Z,1.10
2022-12-22T16:27:36.897Z,1.13
2022-12-22T16:32:40.062Z,1.03
2022-12-22T16:37:42.310Z,1.10
2022-12-22T16:48:25.842Z,1.47
2022-12-22T16:53:29.023Z,1.00
2022-12-22T16:58:30.900Z,1.20
2022-12-22T17:03:33.128Z,1.20
2022-12-22T17:08:42.018Z,1.20
2022-12-22T17:13:43.945Z,1.20
2022-12-22T17:18:46.141Z,0.80
2022-12-22T17:23:53.646Z,0.90
2022-12-22T17:28:55.686Z,1.10
2022-12-22T17:33:57.983Z,0.97
2022-12-22T17:39:00.870Z,0.80
2022-12-22T17:44:05.756Z,0.90
2022-12-22T17:49:16.992Z,0.77
2022-12-22T17:54:27.396Z,1.10
2022-12-22T17:59:32.088Z,1.60
2022-12-22T18:04:33.986Z,1.10
2022-12-22T18:09:39.621Z,1.33
2022-12-22T18:14:53.199Z,1.30
2022-12-22T18:19:55.693Z,1.17
2022-12-22T18:25:00.218Z,1.23
2022-12-22T18:30:07.959Z,0.90
2022-12-22T18:35:10.056Z,1.20
2022-12-22T18:40:33.853Z,1.10
2022-12-22T18:45:40.923Z,1.00
2022-12-22T18:50:43.412Z,1.23
2022-12-22T18:55:45.759Z,2.20
2022-12-22T19:00:48.248Z,1.20
2022-12-22T19:05:50.343Z,1.17
2022-12-22T19:10:53.952Z,1.10
2022-12-22T19:15:56.265Z,1.27
2022-12-22T19:20:58.293Z,1.03
2022-12-22T19:26:08.342Z,1.10
2022-12-22T19:31:21.858Z,1.33
2022-12-22T19:36:26.114Z,1.47
2022-12-22T19:42:04.511Z,1.03
2022-12-22T19:47:40.506Z,1.40
2022-12-22T19:52:57.746Z,2.90
2022-12-22T19:58:05.062Z,1.50
2022-12-22T20:03:40.763Z,1.13
2022-12-22T20:08:50.096Z,1.00
2022-12-22T20:13:57.031Z,1.60
2022-12-22T20:19:51.285Z,1.17
2022-12-22T20:24:57.581Z,1.17
2022-12-22T20:35:21.874Z,2.50
2022-12-22T20:40:31.969Z,1.53
2022-12-22T20:45:35.424Z,1.33
2022-12-22T20:50:41.750Z,1.40
2022-12-22T20:55:46.963Z,1.27
2022-12-22T21:00:58.040Z,1.10
2022-12-22T21:06:03.240Z,1.37
2022-12-22T21:11:06.281Z,1.80
2022-12-22T21:16:19.192Z,1.50
2022-12-22T21:21:23.081Z,1.20
2022-12-22T21:26:37.248Z,1.37
2022-12-22T21:31:39.378Z,1.33
2022-12-22T21:36:49.118Z,1.90
2022-12-22T21:42:11.439Z,1.83
2022-12-22T21:47:29.191Z,2.20
2022-12-22T21:59:09.873Z,1.50
2022-12-22T22:04:26.993Z,1.93
2022-12-22T22:09:30.843Z,8.80
2022-12-22T22:14:33.119Z,3.40
2022-12-22T22:19:37.335Z,3.13
2022-12-22T22:24:39.249Z,2.07
2022-12-22T22:36:02.110Z,2.00
2022-12-22T22:41:09.815Z,1.50
2022-12-22T22:46:27.138Z,1.60
2022-12-22T22:51:34.891Z,1.47
2022-12-22T22:56:38.842Z,1.93
2022-12-22T23:01:41.433Z,1.80
2022-12-22T23:06:45.602Z,2.00
2022-12-22T23:11:52.310Z,1.70
2022-12-22T23:16:54.459Z,1.57
2022-12-22T23:21:57.123Z,1.90
2022-12-22T23:27:05.348Z,1.50
2022-12-22T23:32:07.419Z,2.07
2022-12-22T23:37:17.193Z,1.60
2022-12-22T23:42:24.714Z,1.53
2022-12-22T23:47:27.112Z,1.47
2022-12-22T23:52:34.547Z,1.20
2022-12-22T23:57:36.736Z,1.40
